createdAt,value
2018-10-16T00:01:20.445Z,20.17
2018-10-16T00:03:49.593Z,23.77
2018-10-16T00:06:19.378Z,17.00
2018-10-16T00:08:48.628Z,21.60
2018-10-16T00:11:17.848Z,17.13
2018-10-16T00:13:47.114Z,14.60
2018-10-16T00:16:16.364Z,17.87
2018-10-16T00:18:45.682Z,18.80
2018-10-16T00:21:14.900Z,15.83
2018-10-16T00:23:44.146Z,17.07
2018-10-16T00:26:13.335Z,13.37
2018-10-16T00:28:42.651Z,16.43
2018-10-16T00:31:11.850Z,19.27
2018-10-16T00:33:41.084Z,26.87
2018-10-16T00:36:10.373Z,15.77
2018-10-16T00:38:39.538Z,19.70
2018-10-16T00:41:08.754Z,17.00
2018-10-16T00:43:37.952Z,16.73
2018-10-16T00:46:07.383Z,14.67
2018-10-16T00:48:36.493Z,15.43
2018-10-16T00:51:05.761Z,16.43
2018-10-16T00:53:34.898Z,16.37
2018-10-16T00:56:04.129Z,17.33
2018-10-16T00:58:34.152Z,15.97
2018-10-16T01:01:03.346Z,16.83
2018-10-16T01:03:32.485Z,18.57
2018-10-16T01:06:02.561Z,17.73
2018-10-16T01:08:31.701Z,14.37
2018-10-16T01:11:00.854Z,16.87
2018-10-16T01:13:30.201Z,14.23
2018-10-16T01:15:59.376Z,19.47
2018-10-16T01:18:28.713Z,14.17
2018-10-16T01:20:57.886Z,15.30
2018-10-16T01:23:27.153Z,16.57
2018-10-16T01:25:56.303Z,18.27
2018-10-16T01:28:25.635Z,19.57
2018-10-16T01:30:54.879Z,18.20
2018-10-16T01:33:24.028Z,18.87
2018-10-16T01:35:53.254Z,20.47
2018-10-16T01:38:22.578Z,19.23
2018-10-16T01:40:51.804Z,20.37
2018-10-16T01:43:21.149Z,16.40
2018-10-16T01:45:50.370Z,21.80
2018-10-16T01:48:19.582Z,15.43
2018-10-16T01:50:48.649Z,20.10
2018-10-16T01:53:17.954Z,18.50
2018-10-16T01:55:47.183Z,20.47
2018-10-16T01:58:16.361Z,16.67
2018-10-16T02:00:46.662Z,19.00
2018-10-16T02:03:15.963Z,17.27
2018-10-16T02:05:45.194Z,18.43
2018-10-16T02:08:14.380Z,20.87
2018-10-16T02:10:43.618Z,19.20
2018-10-16T02:13:12.764Z,21.70
2018-10-16T02:15:41.866Z,18.93
2018-10-16T02:18:11.066Z,22.27
2018-10-16T02:20:40.263Z,22.23
2018-10-16T02:23:09.426Z,20.87
2018-10-16T02:25:38.598Z,19.03
2018-10-16T02:28:07.853Z,26.70
2018-10-16T02:30:37.035Z,24.67
2018-10-16T02:33:06.534Z,18.70
2018-10-16T02:35:35.769Z,19.30
2018-10-16T02:38:05.205Z,22.97
2018-10-16T02:40:34.381Z,19.17
2018-10-16T02:43:03.582Z,29.43
2018-10-16T02:45:32.697Z,23.10
2018-10-16T02:48:01.947Z,21.77
2018-10-16T02:50:31.129Z,17.73
2018-10-16T02:53:00.435Z,24.20
2018-10-16T02:55:29.555Z,21.00
2018-10-16T02:57:58.737Z,21.77
2018-10-16T03:00:27.984Z,18.50
2018-10-16T03:02:57.240Z,26.60
2018-10-16T03:05:26.454Z,21.70
2018-10-16T03:07:55.748Z,23.03
2018-10-16T03:10:25.093Z,18.77
2018-10-16T03:12:54.956Z,20.00
2018-10-16T03:15:24.154Z,20.50
2018-10-16T03:17:53.370Z,22.20
2018-10-16T03:20:22.494Z,24.20
2018-10-16T03:22:51.651Z,20.47
2018-10-16T03:25:20.904Z,20.23
2018-10-16T03:27:50.129Z,20.20
2018-10-16T03:30:19.574Z,22.47
2018-10-16T03:32:48.767Z,21.87
2018-10-16T03:35:18.038Z,20.47
2018-10-16T03:37:47.237Z,19.13
2018-10-16T03:40:16.425Z,18.83
2018-10-16T03:42:45.774Z,23.90
2018-10-16T03:45:15.014Z,21.63
2018-10-16T03:47:44.245Z,18.93
2018-10-16T03:50:13.432Z,24.93
2018-10-16T03:52:42.635Z,23.20
2018-10-16T03:55:12.003Z,22.67
2018-10-16T03:57:40.982Z,17.60
2018-10-16T04:00:11.104Z,22.27
2018-10-16T04:02:40.500Z,22.87
2018-10-16T04:05:09.769Z,19.83
2018-10-16T04:07:39.702Z,19.63
2018-10-16T04:10:09.566Z,20.20
2018-10-16T04:12:38.785Z,22.33
2018-10-16T04:15:09.283Z,25.20
2018-10-16T04:17:39.221Z,21.40
2018-10-16T04:20:08.722Z,22.73
2018-10-16T04:22:38.320Z,21.77
2018-10-16T04:25:08.074Z,20.07
2018-10-16T04:27:37.138Z,23.07
2018-10-16T04:30:07.395Z,23.47
2018-10-16T04:32:36.641Z,25.13
2018-10-16T04:35:10.903Z,21.37
2018-10-16T04:37:40.165Z,22.03
2018-10-16T04:40:09.457Z,21.77
2018-10-16T04:42:38.746Z,25.30
2018-10-16T04:45:08.703Z,19.83
2018-10-16T04:47:38.170Z,24.23
2018-10-16T04:50:07.474Z,19.80
2018-10-16T04:52:36.605Z,23.80
2018-10-16T04:55:06.329Z,20.77
2018-10-16T04:57:35.593Z,21.90
2018-10-16T05:00:05.561Z,19.00
2018-10-16T05:02:34.813Z,27.63
2018-10-16T05:05:04.233Z,24.00
2018-10-16T05:07:33.607Z,30.83
2018-10-16T05:10:02.800Z,24.80
2018-10-16T05:12:31.994Z,19.40
2018-10-16T05:15:01.221Z,30.63
2018-10-16T05:17:30.489Z,23.53
2018-10-16T05:19:59.734Z,22.60
2018-10-16T05:22:29.117Z,22.23
2018-10-16T05:24:58.394Z,29.30
2018-10-16T05:27:27.602Z,20.33
2018-10-16T05:29:56.784Z,30.00
2018-10-16T05:32:25.929Z,26.53
2018-10-16T05:34:55.078Z,22.00
2018-10-16T05:37:24.314Z,21.13
2018-10-16T05:39:53.557Z,23.73
2018-10-16T05:42:22.738Z,25.27
2018-10-16T05:44:51.942Z,23.27
2018-10-16T05:47:21.206Z,33.27
2018-10-16T05:49:50.413Z,24.23
2018-10-16T05:52:19.711Z,29.30
2018-10-16T05:54:48.928Z,25.33
2018-10-16T05:57:18.189Z,24.07
2018-10-16T05:59:47.378Z,22.17
2018-10-16T06:02:16.697Z,27.90
2018-10-16T06:04:45.931Z,24.43
2018-10-16T06:07:15.090Z,23.97
2018-10-16T06:09:44.395Z,26.77
2018-10-16T06:12:13.573Z,26.00
2018-10-16T06:14:43.230Z,29.10
2018-10-16T06:17:12.350Z,24.03
2018-10-16T06:19:41.504Z,27.67
2018-10-16T06:22:10.602Z,21.87
2018-10-16T06:24:39.675Z,29.57
2018-10-16T06:27:08.828Z,23.73
2018-10-16T06:29:37.960Z,23.77
2018-10-16T06:32:07.992Z,24.17
2018-10-16T06:34:37.303Z,25.07
2018-10-16T06:37:06.641Z,24.13
2018-10-16T06:39:35.917Z,27.17
2018-10-16T06:42:05.189Z,26.53
2018-10-16T06:44:34.350Z,25.27
2018-10-16T06:47:03.505Z,27.30
2018-10-16T06:49:32.769Z,25.67
2018-10-16T06:52:02.074Z,25.13
2018-10-16T06:54:31.615Z,28.87
2018-10-16T06:57:00.922Z,27.70
2018-10-16T06:59:30.094Z,29.77
2018-10-16T07:01:59.281Z,26.30
2018-10-16T07:04:28.469Z,31.27
2018-10-16T07:06:57.703Z,33.17
2018-10-16T07:09:27.194Z,28.53
2018-10-16T07:11:56.490Z,26.40
2018-10-16T07:14:26.027Z,25.17
2018-10-16T07:16:55.241Z,31.47
2018-10-16T07:19:24.493Z,28.13
2018-10-16T07:21:53.905Z,29.50
2018-10-16T07:24:23.014Z,27.07
2018-10-16T07:26:52.118Z,31.10
2018-10-16T07:29:21.290Z,24.50
2018-10-16T07:31:50.485Z,24.70
2018-10-16T07:34:19.562Z,29.10
2018-10-16T07:36:48.737Z,29.10
2018-10-16T07:39:17.850Z,25.33
2018-10-16T07:41:47.103Z,28.93
2018-10-16T07:44:16.310Z,26.50
2018-10-16T07:46:45.462Z,33.67
2018-10-16T07:49:14.625Z,32.90
2018-10-16T07:51:43.886Z,30.13
2018-10-16T07:54:13.143Z,30.43
2018-10-16T07:56:42.425Z,31.90
2018-10-16T07:59:11.496Z,26.33
2018-10-16T08:01:40.581Z,28.20
2018-10-16T08:04:09.802Z,27.23
2018-10-16T08:06:39.108Z,31.00
2018-10-16T08:09:12.358Z,29.00
2018-10-16T08:11:48.603Z,30.33
2018-10-16T08:14:18.854Z,25.93
2018-10-16T08:16:49.183Z,25.97
2018-10-16T08:19:18.305Z,33.63
2018-10-16T08:21:48.374Z,24.63
2018-10-16T08:24:17.618Z,37.43
2018-10-16T08:26:46.997Z,29.30
2018-10-16T08:29:16.230Z,26.77
2018-10-16T08:31:45.533Z,26.63
2018-10-16T08:34:14.808Z,28.57
2018-10-16T08:36:44.060Z,34.80
2018-10-16T08:39:21.129Z,28.00
2018-10-16T08:46:08.770Z,28.13
2018-10-16T08:48:48.798Z,33.07
2018-10-16T08:51:28.833Z,32.70
2018-10-16T08:53:57.997Z,23.10
2018-10-16T08:56:27.217Z,25.50
2018-10-16T08:58:56.517Z,23.92
2018-10-16T09:01:25.799Z,26.80
2018-10-16T09:03:54.971Z,27.10
2018-10-16T09:06:24.204Z,29.32
2018-10-16T09:08:53.322Z,28.60
2018-10-16T09:11:22.615Z,29.18
2018-10-16T09:13:51.982Z,28.92
2018-10-16T09:16:22.019Z,36.00
2018-10-16T09:18:51.338Z,25.57
2018-10-16T09:21:21.490Z,24.80
2018-10-16T09:23:50.686Z,33.80
2018-10-16T09:26:19.979Z,19.25
2018-10-16T09:28:49.122Z,18.95
2018-10-16T09:31:18.314Z,31.65
2018-10-16T09:33:47.573Z,27.25
2018-10-16T09:36:16.734Z,34.92
2018-10-16T09:38:46.022Z,23.02
2018-10-16T09:41:15.322Z,28.98
2018-10-16T09:43:44.498Z,22.67
2018-10-16T09:46:13.730Z,30.32
2018-10-16T09:48:43.054Z,31.48
2018-10-16T09:51:12.335Z,24.25
2018-10-16T09:53:41.524Z,28.57
2018-10-16T09:56:10.740Z,28.85
2018-10-16T09:58:39.892Z,27.17
2018-10-16T10:01:14.159Z,22.02
2018-10-16T10:03:43.470Z,27.80
2018-10-16T10:06:12.633Z,22.22
2018-10-16T10:08:41.912Z,22.62
2018-10-16T10:11:11.107Z,31.68
2018-10-16T10:13:40.283Z,33.20
2018-10-16T10:16:09.541Z,26.70
2018-10-16T10:18:38.805Z,25.90
2018-10-16T10:21:08.065Z,28.20
2018-10-16T10:23:37.295Z,22.58
2018-10-16T10:26:06.543Z,23.15
2018-10-16T10:28:35.713Z,26.02
2018-10-16T10:31:04.887Z,27.42
2018-10-16T10:33:33.998Z,23.67
2018-10-16T10:36:03.162Z,24.60
2018-10-16T10:38:32.482Z,22.02
2018-10-16T10:41:01.839Z,24.20
2018-10-16T10:43:31.010Z,22.02
2018-10-16T10:46:00.205Z,25.65
2018-10-16T10:48:29.439Z,23.52
2018-10-16T10:50:58.920Z,22.98
2018-10-16T10:53:27.846Z,29.48
2018-10-16T10:55:57.219Z,21.97
2018-10-16T10:58:26.489Z,33.35
2018-10-16T11:00:55.718Z,26.23
2018-10-16T11:03:25.143Z,25.32
2018-10-16T11:05:54.303Z,27.67
2018-10-16T11:08:23.605Z,21.73
2018-10-16T11:10:53.545Z,21.10
2018-10-16T11:13:22.758Z,28.35
2018-10-16T11:15:51.854Z,25.15
2018-10-16T11:18:21.168Z,22.58
2018-10-16T11:20:50.318Z,25.27
2018-10-16T11:23:19.485Z,27.07
2018-10-16T11:25:48.760Z,23.12
2018-10-16T11:28:17.989Z,23.05
2018-10-16T11:30:47.235Z,19.50
2018-10-16T11:33:16.500Z,20.68
2018-10-16T11:35:45.700Z,22.58
2018-10-16T11:38:14.935Z,19.85
2018-10-16T11:40:44.122Z,19.98
2018-10-16T11:43:13.489Z,22.40
2018-10-16T11:45:42.779Z,24.15
2018-10-16T11:48:11.981Z,28.60
2018-10-16T11:50:41.176Z,23.52
2018-10-16T11:53:10.375Z,19.60
2018-10-16T11:55:39.554Z,22.10
2018-10-16T11:58:08.837Z,17.20
2018-10-16T12:00:38.035Z,26.60
2018-10-16T12:03:07.334Z,21.02
2018-10-16T12:05:36.863Z,28.27
2018-10-16T12:08:06.207Z,31.87
2018-10-16T12:10:35.231Z,19.75
2018-10-16T12:13:04.532Z,18.15
2018-10-16T12:15:33.798Z,23.52
2018-10-16T12:18:13.914Z,25.08
2018-10-16T12:20:46.914Z,26.45
2018-10-16T12:23:16.370Z,23.55
2018-10-16T12:25:45.657Z,18.85
2018-10-16T12:28:14.896Z,21.82
2018-10-16T12:30:44.185Z,21.05
2018-10-16T12:33:13.391Z,19.00
2018-10-16T12:35:42.531Z,19.57
2018-10-16T12:38:11.762Z,24.23
2018-10-16T12:40:40.966Z,24.85
2018-10-16T12:43:10.547Z,20.40
2018-10-16T12:45:39.806Z,17.65
2018-10-16T12:48:09.292Z,20.88
2018-10-16T12:50:38.519Z,20.43
2018-10-16T12:53:08.214Z,20.12
2018-10-16T12:55:37.336Z,17.67
2018-10-16T12:58:06.666Z,14.98
2018-10-16T13:00:35.833Z,20.97
2018-10-16T13:03:05.158Z,26.42
2018-10-16T13:05:34.290Z,24.85
2018-10-16T13:08:03.567Z,22.20
2018-10-16T13:10:32.750Z,29.77
2018-10-16T13:13:02.012Z,23.12
2018-10-16T13:15:31.237Z,18.25
2018-10-16T13:18:00.403Z,17.57
2018-10-16T13:20:29.557Z,18.77
2018-10-16T13:22:58.891Z,25.15
2018-10-16T13:25:27.911Z,16.40
2018-10-16T13:27:57.178Z,18.90
2018-10-16T13:30:26.462Z,19.32
2018-10-16T13:32:55.771Z,24.10
2018-10-16T13:35:25.066Z,16.20
2018-10-16T13:37:54.259Z,19.25
2018-10-16T13:40:23.546Z,21.52
2018-10-16T13:42:52.860Z,23.60
2018-10-16T13:45:21.993Z,24.02
2018-10-16T13:47:51.137Z,16.67
2018-10-16T13:50:20.298Z,25.32
2018-10-16T13:52:49.472Z,19.23
2018-10-16T13:55:18.706Z,25.92
2018-10-16T13:57:47.834Z,22.85
2018-10-16T14:00:18.304Z,18.25
2018-10-16T14:02:48.755Z,15.48
2018-10-16T14:05:18.104Z,18.75
2018-10-16T14:07:47.353Z,18.48
2018-10-16T14:10:17.195Z,19.80
2018-10-16T14:12:47.303Z,18.95
2018-10-16T14:15:17.011Z,22.02
2018-10-16T14:17:46.210Z,23.75
2018-10-16T14:20:15.487Z,16.12
2018-10-16T14:22:44.746Z,18.07
2018-10-16T14:25:15.218Z,20.72
2018-10-16T14:27:44.481Z,23.35
2018-10-16T14:30:14.856Z,24.02
2018-10-16T14:32:44.240Z,20.37
2018-10-16T14:35:14.060Z,22.30
2018-10-16T14:37:43.274Z,16.67
2018-10-16T14:40:14.399Z,19.55
2018-10-16T14:42:43.745Z,17.45
2018-10-16T14:45:13.698Z,19.60
2018-10-16T14:47:43.010Z,20.75
2018-10-16T14:50:13.939Z,21.23
2018-10-16T14:52:43.278Z,20.92
2018-10-16T14:55:12.457Z,20.80
2018-10-16T14:57:41.745Z,23.22
2018-10-16T15:00:12.410Z,24.10
2018-10-16T15:02:41.586Z,20.57
2018-10-16T15:05:12.613Z,23.77
2018-10-16T15:07:41.976Z,18.85
2018-10-16T15:10:11.249Z,17.00
2018-10-16T15:12:40.386Z,18.73
2018-10-16T15:15:10.246Z,19.98
2018-10-16T15:17:39.447Z,20.72
2018-10-16T15:20:10.117Z,19.45
2018-10-16T15:22:39.382Z,23.42
2018-10-16T15:25:09.603Z,18.32
2018-10-16T15:27:38.833Z,18.15
2018-10-16T15:30:09.314Z,25.12
2018-10-16T15:32:38.541Z,22.52
2018-10-16T15:35:09.162Z,24.12
2018-10-16T15:37:38.541Z,18.98
2018-10-16T15:40:09.138Z,26.65
2018-10-16T15:42:38.243Z,20.17
2018-10-16T15:45:09.861Z,16.37
2018-10-16T15:47:39.365Z,18.82
2018-10-16T15:50:09.218Z,25.02
2018-10-16T15:52:38.769Z,20.17
2018-10-16T15:55:08.682Z,21.30
2018-10-16T15:57:37.876Z,20.15
2018-10-16T16:00:10.501Z,21.60
2018-10-16T16:02:39.646Z,18.07
2018-10-16T16:05:08.801Z,19.40
2018-10-16T16:07:38.573Z,18.30
2018-10-16T16:10:09.666Z,21.35
2018-10-16T16:12:38.920Z,25.65
2018-10-16T16:15:09.578Z,22.60
2018-10-16T16:17:38.751Z,30.68
2018-10-16T16:20:09.333Z,20.05
2018-10-16T16:22:38.385Z,23.90
2018-10-16T16:25:09.536Z,15.43
2018-10-16T16:27:38.898Z,19.87
2018-10-16T16:30:10.089Z,21.68
2018-10-16T16:32:39.333Z,28.00
2018-10-16T16:35:08.620Z,21.30
2018-10-16T16:37:37.723Z,25.52
2018-10-16T16:40:09.544Z,21.67
2018-10-16T16:42:38.698Z,23.85
2018-10-16T16:45:08.793Z,20.55
2018-10-16T16:47:38.138Z,21.80
2018-10-16T16:50:08.534Z,19.35
2018-10-16T16:52:37.963Z,20.05
2018-10-16T16:55:08.848Z,22.77
2018-10-16T16:57:38.202Z,21.52
2018-10-16T17:00:09.883Z,22.93
2018-10-16T17:02:39.700Z,18.92
2018-10-16T17:05:09.551Z,20.72
2018-10-16T17:07:38.757Z,22.87
2018-10-16T17:10:08.869Z,20.20
2018-10-16T17:12:38.497Z,22.67
2018-10-16T17:15:09.735Z,26.07
2018-10-16T17:17:39.194Z,23.70
2018-10-16T17:20:09.491Z,19.13
2018-10-16T17:22:38.643Z,27.25
2018-10-16T17:25:09.101Z,22.55
2018-10-16T17:27:38.234Z,22.00
2018-10-16T17:30:10.347Z,22.22
2018-10-16T17:32:39.646Z,22.02
2018-10-16T17:35:09.749Z,22.03
2018-10-16T17:37:39.292Z,22.43
2018-10-16T17:40:10.422Z,21.63
2018-10-16T17:42:39.632Z,21.55
2018-10-16T17:45:10.707Z,23.98
2018-10-16T17:47:39.833Z,25.17
2018-10-16T17:50:11.415Z,26.17
2018-10-16T17:52:41.709Z,21.70
2018-10-16T17:55:11.854Z,21.30
2018-10-16T17:57:41.331Z,24.70
2018-10-16T18:00:15.036Z,34.93
2018-10-16T18:02:44.808Z,31.23
2018-10-16T18:05:14.647Z,35.67
2018-10-16T18:07:44.606Z,29.27
2018-10-16T18:10:13.981Z,26.87
2018-10-16T18:12:43.161Z,28.47
2018-10-16T18:15:13.625Z,23.20
2018-10-16T18:17:43.383Z,25.02
2018-10-16T18:20:14.405Z,28.13
2018-10-16T18:22:43.907Z,24.67
2018-10-16T18:25:13.237Z,32.00
2018-10-16T18:27:43.342Z,33.97
2018-10-16T18:30:12.829Z,29.43
2018-10-16T18:32:42.354Z,27.83
2018-10-16T18:35:11.853Z,28.07
2018-10-16T18:37:42.025Z,30.23
2018-10-16T18:40:11.936Z,29.77
2018-10-16T18:42:41.398Z,28.62
2018-10-16T18:45:12.191Z,27.20
2018-10-16T18:47:41.425Z,27.93
2018-10-16T18:50:11.842Z,27.13
2018-10-16T18:52:41.065Z,28.80
2018-10-16T18:55:11.853Z,28.13
2018-10-16T18:57:41.059Z,33.17
2018-10-16T19:00:12.489Z,31.87
2018-10-16T19:02:42.014Z,31.73
2018-10-16T19:05:11.615Z,29.65
2018-10-16T19:07:41.358Z,32.33
2018-10-16T19:10:10.658Z,28.60
2018-10-16T19:12:40.758Z,32.38
2018-10-16T19:15:11.901Z,30.47
2018-10-16T19:17:41.490Z,28.03
2018-10-16T19:20:12.073Z,30.73
2018-10-16T19:22:42.681Z,26.47
2018-10-16T19:25:12.851Z,29.50
2018-10-16T19:27:42.066Z,27.00
2018-10-16T19:30:12.096Z,31.40
2018-10-16T19:32:41.244Z,28.93
2018-10-16T19:35:11.874Z,32.10
2018-10-16T19:37:41.237Z,34.40
2018-10-16T19:40:10.455Z,34.57
2018-10-16T19:42:39.683Z,31.48
2018-10-16T19:45:09.580Z,28.23
2018-10-16T19:47:38.845Z,27.90
2018-10-16T19:50:08.922Z,30.33
2018-10-16T19:52:38.131Z,26.13
2018-10-16T19:55:07.386Z,26.42
2018-10-16T19:57:36.583Z,30.83
2018-10-16T20:00:06.496Z,28.23
2018-10-16T20:02:35.857Z,26.80
2018-10-16T20:05:05.265Z,31.70
2018-10-16T20:07:34.474Z,30.90
2018-10-16T20:10:03.691Z,31.47
2018-10-16T20:12:32.831Z,27.82
2018-10-16T20:15:02.110Z,27.97
2018-10-16T20:17:32.122Z,30.60
2018-10-16T20:20:01.258Z,28.80
2018-10-16T20:22:30.709Z,32.90
2018-10-16T20:24:59.902Z,30.30
2018-10-16T20:27:29.083Z,32.93
2018-10-16T20:29:58.217Z,34.60
2018-10-16T20:32:27.451Z,33.53
2018-10-16T20:34:56.633Z,32.80
2018-10-16T20:37:25.818Z,28.67
2018-10-16T20:39:55.405Z,31.93
2018-10-16T20:42:24.559Z,34.43
2018-10-16T20:44:53.745Z,32.20
2018-10-16T20:47:22.907Z,34.17
2018-10-16T20:49:52.034Z,32.80
2018-10-16T20:52:21.458Z,37.73
2018-10-16T20:54:51.109Z,41.40
2018-10-16T20:57:20.307Z,29.60
2018-10-16T20:59:49.707Z,29.97
2018-10-16T21:02:19.283Z,33.38
2018-10-16T21:04:48.662Z,34.37
2018-10-16T21:07:17.754Z,39.53
2018-10-16T21:09:46.955Z,33.37
2018-10-16T21:12:16.215Z,32.60
2018-10-16T21:14:45.382Z,32.93
2018-10-16T21:17:15.242Z,40.33
2018-10-16T21:19:44.703Z,31.57
2018-10-16T21:22:14.269Z,33.60
2018-10-16T21:24:43.484Z,31.40
2018-10-16T21:27:13.278Z,37.47
2018-10-16T21:29:42.455Z,35.47
2018-10-16T21:32:11.703Z,33.20
2018-10-16T21:34:40.806Z,35.53
2018-10-16T21:37:10.157Z,31.87
2018-10-16T21:39:39.700Z,38.40
2018-10-16T21:42:08.880Z,37.77
2018-10-16T21:44:38.083Z,33.17
2018-10-16T21:47:07.441Z,34.90
2018-10-16T21:49:37.195Z,35.00
2018-10-16T21:52:06.415Z,37.70
2018-10-16T21:54:35.709Z,42.27
2018-10-16T21:57:04.850Z,39.77
2018-10-16T21:59:34.311Z,36.80
2018-10-16T22:02:08.686Z,38.63
2018-10-16T22:04:39.804Z,33.30
2018-10-16T22:07:09.480Z,31.27
2018-10-16T22:09:38.587Z,35.80
2018-10-16T22:12:07.732Z,36.27
2018-10-16T22:14:36.977Z,37.10
2018-10-16T22:17:06.596Z,38.27
2018-10-16T22:19:35.894Z,38.03
2018-10-16T22:22:05.400Z,39.53
2018-10-16T22:24:34.635Z,36.33
2018-10-16T22:27:03.854Z,36.83
2018-10-16T22:29:33.168Z,42.57
2018-10-16T22:32:02.395Z,44.80
2018-10-16T22:34:31.731Z,35.77
2018-10-16T22:37:01.098Z,39.83
2018-10-16T22:39:30.339Z,38.70
2018-10-16T22:41:59.533Z,37.60
2018-10-16T22:44:29.509Z,42.43
2018-10-16T22:46:58.813Z,38.90
2018-10-16T22:49:28.038Z,40.93
2018-10-16T22:51:57.254Z,39.60
2018-10-16T22:54:26.420Z,39.73
2018-10-16T22:56:55.613Z,36.63
2018-10-16T22:59:24.841Z,43.33
2018-10-16T23:01:53.972Z,37.60
2018-10-16T23:04:23.179Z,36.97
2018-10-16T23:06:52.369Z,36.13
2018-10-16T23:09:21.666Z,40.60
2018-10-16T23:11:50.920Z,44.70
2018-10-16T23:14:20.415Z,38.80
2018-10-16T23:16:49.588Z,39.93
2018-10-16T23:19:18.819Z,39.07
2018-10-16T23:21:48.073Z,39.17
2018-10-16T23:24:17.249Z,41.57
2018-10-16T23:26:46.493Z,37.83
2018-10-16T23:29:15.658Z,36.23
2018-10-16T23:31:44.814Z,36.03
2018-10-16T23:34:13.968Z,38.97
2018-10-16T23:36:43.173Z,41.67
2018-10-16T23:39:13.918Z,37.63
2018-10-16T23:41:43.561Z,37.00
2018-10-16T23:44:13.039Z,34.97
2018-10-16T23:46:42.358Z,35.07
2018-10-16T23:49:11.621Z,36.40
2018-10-16T23:51:40.929Z,38.13
2018-10-16T23:54:10.238Z,38.03
2018-10-16T23:56:39.398Z,37.13
2018-10-16T23:59:08.721Z,42.40
